Ansted, West Virginia
Current Conditions -  °F | °C
As of 12:51 AM on Sunday 23 Nov 2014 (Local Time) from KBKW Reporting Station
Clear Clear  
Wind Chill:   Ceiling: Unl
Heat Index:   Visibility: 10mi
Dew Point: -8°   Wind: 6mph
Humidity: 35%   Direction: 150°SSE
Pressure: 30.18"   Gusts: NA
Location:  38.14°N, 81.1°W
Report Text: KBKW 230551Z AUTO 15005KT 10SM CLR 06/M08 A3018 RMK AO2 SLP219 T00611083 10078 20061 56005
Loading
Personal Weather Stations






























Interactive Weather Map New forecast layout! Learn more

10-Day Weather Forecast

Advertisements
Track Severe Weather on mobile